sensor_id;sensor_type;location;lat;lon;timestamp;temperature;humidity
70851;DHT22;58475;49.662;9.636;2023-09-19T00:01:14;17.27;86.33
70851;DHT22;58475;49.662;9.636;2023-09-19T00:03:40;17.16;86.72
70851;DHT22;58475;49.662;9.636;2023-09-19T00:06:07;17.16;86.85
70851;DHT22;58475;49.662;9.636;2023-09-19T00:08:36;17.10;87.22
70851;DHT22;58475;49.662;9.636;2023-09-19T00:11:01;17.13;86.97
70851;DHT22;58475;49.662;9.636;2023-09-19T00:13:29;17.03;87.39
70851;DHT22;58475;49.662;9.636;2023-09-19T00:15:56;17.07;87.36
70851;DHT22;58475;49.662;9.636;2023-09-19T00:18:25;17.20;86.88
70851;DHT22;58475;49.662;9.636;2023-09-19T00:20:58;17.27;86.90
70851;DHT22;58475;49.662;9.636;2023-09-19T00:23:24;17.32;86.77
70851;DHT22;58475;49.662;9.636;2023-09-19T00:25:50;17.27;86.97
70851;DHT22;58475;49.662;9.636;2023-09-19T00:28:16;17.23;87.53
70851;DHT22;58475;49.662;9.636;2023-09-19T00:30:44;17.23;87.34
70851;DHT22;58475;49.662;9.636;2023-09-19T00:33:09;17.17;87.33
70851;DHT22;58475;49.662;9.636;2023-09-19T00:35:37;17.17;87.60
70851;DHT22;58475;49.662;9.636;2023-09-19T00:38:02;17.10;87.84
70851;DHT22;58475;49.662;9.636;2023-09-19T00:40:29;17.14;87.65
70851;DHT22;58475;49.662;9.636;2023-09-19T00:42:58;17.06;88.21
70851;DHT22;58475;49.662;9.636;2023-09-19T00:45:26;16.94;88.42
70851;DHT22;58475;49.662;9.636;2023-09-19T00:47:52;17.00;88.32
70851;DHT22;58475;49.662;9.636;2023-09-19T00:50:18;17.02;88.31
70851;DHT22;58475;49.662;9.636;2023-09-19T00:52:46;17.03;88.27
70851;DHT22;58475;49.662;9.636;2023-09-19T00:55:11;17.10;88.26
70851;DHT22;58475;49.662;9.636;2023-09-19T00:57:39;17.10;88.25
70851;DHT22;58475;49.662;9.636;2023-09-19T01:00:06;17.10;88.25
70851;DHT22;58475;49.662;9.636;2023-09-19T01:02:34;17.02;88.63
70851;DHT22;58475;49.662;9.636;2023-09-19T01:05:00;17.04;88.79
70851;DHT22;58475;49.662;9.636;2023-09-19T01:07:30;17.00;88.88
70851;DHT22;58475;49.662;9.636;2023-09-19T01:09:57;17.02;89.03
70851;DHT22;58475;49.662;9.636;2023-09-19T01:15:32;16.97;89.20
70851;DHT22;58475;49.662;9.636;2023-09-19T01:20:57;16.91;89.68
70851;DHT22;58475;49.662;9.636;2023-09-19T01:31:37;16.96;89.65
70851;DHT22;58475;49.662;9.636;2023-09-19T01:34:04;16.97;89.73
70851;DHT22;58475;49.662;9.636;2023-09-19T01:36:35;16.86;90.30
70851;DHT22;58475;49.662;9.636;2023-09-19T01:39:07;16.81;90.49
70851;DHT22;58475;49.662;9.636;2023-09-19T01:42:01;16.84;90.39
70851;DHT22;58475;49.662;9.636;2023-09-19T01:45:12;16.69;91.05
70851;DHT22;58475;49.662;9.636;2023-09-19T01:47:43;16.66;91.07
70851;DHT22;58475;49.662;9.636;2023-09-19T01:52:59;16.67;91.15
70851;DHT22;58475;49.662;9.636;2023-09-19T01:55:30;16.59;91.33
70851;DHT22;58475;49.662;9.636;2023-09-19T01:58:08;16.55;91.51
70851;DHT22;58475;49.662;9.636;2023-09-19T02:00:40;16.66;91.21
70851;DHT22;58475;49.662;9.636;2023-09-19T02:03:08;16.51;91.74
70851;DHT22;58475;49.662;9.636;2023-09-19T02:05:34;16.62;91.59
70851;DHT22;58475;49.662;9.636;2023-09-19T02:07:59;16.66;91.42
70851;DHT22;58475;49.662;9.636;2023-09-19T02:10:26;16.69;91.36
70851;DHT22;58475;49.662;9.636;2023-09-19T02:12:51;16.72;91.23
70851;DHT22;58475;49.662;9.636;2023-09-19T02:15:17;16.70;91.12
70851;DHT22;58475;49.662;9.636;2023-09-19T02:17:43;16.73;91.26
70851;DHT22;58475;49.662;9.636;2023-09-19T02:20:10;16.72;91.30
70851;DHT22;58475;49.662;9.636;2023-09-19T02:22:41;16.75;91.12
70851;DHT22;58475;49.662;9.636;2023-09-19T02:25:07;16.73;91.06
70851;DHT22;58475;49.662;9.636;2023-09-19T02:27:33;16.60;91.61
70851;DHT22;58475;49.662;9.636;2023-09-19T02:29:58;16.67;91.38
70851;DHT22;58475;49.662;9.636;2023-09-19T02:32:24;16.63;91.31
70851;DHT22;58475;49.662;9.636;2023-09-19T02:34:49;16.67;91.20
70851;DHT22;58475;49.662;9.636;2023-09-19T02:37:17;16.59;91.51
70851;DHT22;58475;49.662;9.636;2023-09-19T02:39:44;16.51;91.95
70851;DHT22;58475;49.662;9.636;2023-09-19T02:42:11;16.56;91.64
70851;DHT22;58475;49.662;9.636;2023-09-19T02:44:36;16.52;91.82
70851;DHT22;58475;49.662;9.636;2023-09-19T02:47:03;16.45;92.01
70851;DHT22;58475;49.662;9.636;2023-09-19T02:49:29;16.53;91.92
70851;DHT22;58475;49.662;9.636;2023-09-19T02:51:54;16.63;91.60
70851;DHT22;58475;49.662;9.636;2023-09-19T02:54:19;16.62;91.67
70851;DHT22;58475;49.662;9.636;2023-09-19T02:56:45;16.62;92.08
70851;DHT22;58475;49.662;9.636;2023-09-19T02:59:12;16.63;92.39
70851;DHT22;58475;49.662;9.636;2023-09-19T03:01:38;16.66;92.66
70851;DHT22;58475;49.662;9.636;2023-09-19T03:04:04;16.67;93.39
70851;DHT22;58475;49.662;9.636;2023-09-19T03:06:31;16.66;93.71
70851;DHT22;58475;49.662;9.636;2023-09-19T03:08:56;16.63;95.27
70851;DHT22;58475;49.662;9.636;2023-09-19T03:11:22;16.55;95.50
70851;DHT22;58475;49.662;9.636;2023-09-19T03:13:53;16.35;96.76
70851;DHT22;58475;49.662;9.636;2023-09-19T03:16:20;16.39;96.87
70851;DHT22;58475;49.662;9.636;2023-09-19T03:18:48;16.52;97.06
70851;DHT22;58475;49.662;9.636;2023-09-19T03:21:15;16.41;97.41
70851;DHT22;58475;49.662;9.636;2023-09-19T03:23:42;16.38;98.23
70851;DHT22;58475;49.662;9.636;2023-09-19T03:26:10;16.42;97.63
70851;DHT22;58475;49.662;9.636;2023-09-19T03:28:35;16.26;98.14
70851;DHT22;58475;49.662;9.636;2023-09-19T03:31:02;16.28;99.10
70851;DHT22;58475;49.662;9.636;2023-09-19T03:33:30;16.19;98.55
70851;DHT22;58475;49.662;9.636;2023-09-19T03:36:03;16.39;97.85
70851;DHT22;58475;49.662;9.636;2023-09-19T03:38:31;16.35;97.91
70851;DHT22;58475;49.662;9.636;2023-09-19T03:40:58;16.42;98.35
70851;DHT22;58475;49.662;9.636;2023-09-19T03:43:24;16.38;98.11
70851;DHT22;58475;49.662;9.636;2023-09-19T03:45:49;16.44;98.14
70851;DHT22;58475;49.662;9.636;2023-09-19T03:48:17;16.32;97.85
70851;DHT22;58475;49.662;9.636;2023-09-19T03:50:42;16.18;98.74
70851;DHT22;58475;49.662;9.636;2023-09-19T03:53:09;16.21;98.45
70851;DHT22;58475;49.662;9.636;2023-09-19T03:55:35;16.26;98.34
70851;DHT22;58475;49.662;9.636;2023-09-19T03:58:05;16.26;98.26
70851;DHT22;58475;49.662;9.636;2023-09-19T04:00:30;16.26;98.38
70851;DHT22;58475;49.662;9.636;2023-09-19T04:02:55;16.29;98.27
70851;DHT22;58475;49.662;9.636;2023-09-19T04:05:24;16.29;98.66
70851;DHT22;58475;49.662;9.636;2023-09-19T04:07:50;16.21;98.45
70851;DHT22;58475;49.662;9.636;2023-09-19T04:10:16;16.17;98.68
70851;DHT22;58475;49.662;9.636;2023-09-19T04:13:00;16.05;98.49
70851;DHT22;58475;49.662;9.636;2023-09-19T04:15:27;16.12;98.38
70851;DHT22;58475;49.662;9.636;2023-09-19T04:17:53;16.08;98.48
70851;DHT22;58475;49.662;9.636;2023-09-19T04:20:19;16.05;98.30
70851;DHT22;58475;49.662;9.636;2023-09-19T04:22:45;16.02;98.37
70851;DHT22;58475;49.662;9.636;2023-09-19T04:25:11;15.97;98.78
70851;DHT22;58475;49.662;9.636;2023-09-19T04:27:37;15.91;98.60
70851;DHT22;58475;49.662;9.636;2023-09-19T04:30:04;15.77;98.69
70851;DHT22;58475;49.662;9.636;2023-09-19T04:32:35;15.81;99.51
70851;DHT22;58475;49.662;9.636;2023-09-19T04:35:01;15.71;98.77
70851;DHT22;58475;49.662;9.636;2023-09-19T04:37:30;15.67;98.75
70851;DHT22;58475;49.662;9.636;2023-09-19T04:39:55;15.73;98.40
70851;DHT22;58475;49.662;9.636;2023-09-19T04:42:21;15.64;98.66
70851;DHT22;58475;49.662;9.636;2023-09-19T04:44:50;15.74;98.68
70851;DHT22;58475;49.662;9.636;2023-09-19T04:47:19;15.53;98.55
70851;DHT22;58475;49.662;9.636;2023-09-19T04:49:44;15.57;97.89
70851;DHT22;58475;49.662;9.636;2023-09-19T04:52:09;15.53;97.80
70851;DHT22;58475;49.662;9.636;2023-09-19T04:54:35;15.49;98.07
70851;DHT22;58475;49.662;9.636;2023-09-19T04:57:00;15.61;97.96
70851;DHT22;58475;49.662;9.636;2023-09-19T04:59:26;15.46;97.95
70851;DHT22;58475;49.662;9.636;2023-09-19T05:01:51;15.47;98.04
70851;DHT22;58475;49.662;9.636;2023-09-19T05:04:16;15.35;98.07
70851;DHT22;58475;49.662;9.636;2023-09-19T05:06:42;15.26;97.40
70851;DHT22;58475;49.662;9.636;2023-09-19T05:09:07;15.13;97.70
70851;DHT22;58475;49.662;9.636;2023-09-19T05:11:33;15.05;98.10
70851;DHT22;58475;49.662;9.636;2023-09-19T05:13:59;15.09;98.03
70851;DHT22;58475;49.662;9.636;2023-09-19T05:16:29;15.08;98.19
70851;DHT22;58475;49.662;9.636;2023-09-19T05:18:56;15.03;97.68
70851;DHT22;58475;49.662;9.636;2023-09-19T05:21:23;15.20;97.74
70851;DHT22;58475;49.662;9.636;2023-09-19T05:23:51;15.15;97.98
70851;DHT22;58475;49.662;9.636;2023-09-19T05:26:17;15.51;96.76
70851;DHT22;58475;49.662;9.636;2023-09-19T05:28:43;15.68;95.87
70851;DHT22;58475;49.662;9.636;2023-09-19T05:31:08;15.97;95.19
70851;DHT22;58475;49.662;9.636;2023-09-19T05:33:34;16.07;94.90
70851;DHT22;58475;49.662;9.636;2023-09-19T05:35:59;16.22;94.77
70851;DHT22;58475;49.662;9.636;2023-09-19T05:38:24;16.46;95.24
70851;DHT22;58475;49.662;9.636;2023-09-19T05:40:52;16.70;94.33
70851;DHT22;58475;49.662;9.636;2023-09-19T05:43:20;16.83;93.80
70851;DHT22;58475;49.662;9.636;2023-09-19T05:45:45;17.03;93.02
70851;DHT22;58475;49.662;9.636;2023-09-19T05:48:13;17.13;93.24
70851;DHT22;58475;49.662;9.636;2023-09-19T05:50:39;16.91;92.47
70851;DHT22;58475;49.662;9.636;2023-09-19T05:53:05;16.80;93.09
70851;DHT22;58475;49.662;9.636;2023-09-19T05:55:31;16.86;93.41
70851;DHT22;58475;49.662;9.636;2023-09-19T05:57:56;17.03;91.80
70851;DHT22;58475;49.662;9.636;2023-09-19T06:00:22;17.39;90.73
70851;DHT22;58475;49.662;9.636;2023-09-19T06:02:52;17.49;90.19
70851;DHT22;58475;49.662;9.636;2023-09-19T06:05:18;17.62;91.10
70851;DHT22;58475;49.662;9.636;2023-09-19T06:07:43;17.75;90.30
70851;DHT22;58475;49.662;9.636;2023-09-19T06:10:09;17.64;89.89
70851;DHT22;58475;49.662;9.636;2023-09-19T06:12:44;17.71;89.40
70851;DHT22;58475;49.662;9.636;2023-09-19T06:15:10;17.61;90.01
70851;DHT22;58475;49.662;9.636;2023-09-19T06:17:47;17.41;89.95
70851;DHT22;58475;49.662;9.636;2023-09-19T06:20:13;17.44;90.38
70851;DHT22;58475;49.662;9.636;2023-09-19T06:22:41;17.54;90.13
70851;DHT22;58475;49.662;9.636;2023-09-19T06:25:11;17.48;89.68
70851;DHT22;58475;49.662;9.636;2023-09-19T06:27:38;17.45;89.83
70851;DHT22;58475;49.662;9.636;2023-09-19T06:30:07;17.39;89.80
70851;DHT22;58475;49.662;9.636;2023-09-19T06:32:34;17.37;89.29
70851;DHT22;58475;49.662;9.636;2023-09-19T06:34:59;17.48;88.58
70851;DHT22;58475;49.662;9.636;2023-09-19T06:37:27;17.35;87.97
70851;DHT22;58475;49.662;9.636;2023-09-19T06:39:53;17.00;87.83
70851;DHT22;58475;49.662;9.636;2023-09-19T06:42:18;17.08;88.50
70851;DHT22;58475;49.662;9.636;2023-09-19T06:44:44;17.07;87.37
70851;DHT22;58475;49.662;9.636;2023-09-19T06:47:09;17.20;87.24
70851;DHT22;58475;49.662;9.636;2023-09-19T06:49:36;17.30;86.99
70851;DHT22;58475;49.662;9.636;2023-09-19T06:52:02;17.71;85.95
70851;DHT22;58475;49.662;9.636;2023-09-19T06:54:28;17.76;84.68
70851;DHT22;58475;49.662;9.636;2023-09-19T06:56:56;18.29;85.40
70851;DHT22;58475;49.662;9.636;2023-09-19T06:59:24;18.30;82.95
70851;DHT22;58475;49.662;9.636;2023-09-19T07:01:49;17.92;82.99
70851;DHT22;58475;49.662;9.636;2023-09-19T07:04:16;17.87;84.83
70851;DHT22;58475;49.662;9.636;2023-09-19T07:06:42;18.00;85.76
70851;DHT22;58475;49.662;9.636;2023-09-19T07:09:08;17.87;85.88
70851;DHT22;58475;49.662;9.636;2023-09-19T07:11:34;18.12;84.73
70851;DHT22;58475;49.662;9.636;2023-09-19T07:13:59;18.07;82.31
70851;DHT22;58475;49.662;9.636;2023-09-19T07:16:24;18.51;81.51
70851;DHT22;58475;49.662;9.636;2023-09-19T07:18:57;18.83;80.31
70851;DHT22;58475;49.662;9.636;2023-09-19T07:21:23;19.18;80.38
70851;DHT22;58475;49.662;9.636;2023-09-19T07:23:49;19.52;80.85
70851;DHT22;58475;49.662;9.636;2023-09-19T07:26:15;18.96;78.73
70851;DHT22;58475;49.662;9.636;2023-09-19T07:28:41;19.29;79.16
70851;DHT22;58475;49.662;9.636;2023-09-19T07:31:06;18.92;78.32
70851;DHT22;58475;49.662;9.636;2023-09-19T07:33:35;19.27;79.26
70851;DHT22;58475;49.662;9.636;2023-09-19T07:36:01;19.12;79.17
70851;DHT22;58475;49.662;9.636;2023-09-19T07:38:26;19.30;79.52
70851;DHT22;58475;49.662;9.636;2023-09-19T07:40:52;19.69;79.01
70851;DHT22;58475;49.662;9.636;2023-09-19T07:43:17;19.11;78.73
70851;DHT22;58475;49.662;9.636;2023-09-19T07:45:43;19.08;78.87
70851;DHT22;58475;49.662;9.636;2023-09-19T07:48:08;18.92;78.80
70851;DHT22;58475;49.662;9.636;2023-09-19T07:50:39;19.09;79.45
70851;DHT22;58475;49.662;9.636;2023-09-19T07:53:05;19.40;78.45
70851;DHT22;58475;49.662;9.636;2023-09-19T07:55:31;19.71;78.94
70851;DHT22;58475;49.662;9.636;2023-09-19T07:57:59;19.45;78.17
70851;DHT22;58475;49.662;9.636;2023-09-19T08:00:24;18.98;76.98
70851;DHT22;58475;49.662;9.636;2023-09-19T08:02:49;19.42;78.00
70851;DHT22;58475;49.662;9.636;2023-09-19T08:05:17;19.53;76.89
70851;DHT22;58475;49.662;9.636;2023-09-19T08:07:45;19.57;76.93
70851;DHT22;58475;49.662;9.636;2023-09-19T08:10:14;19.59;77.07
70851;DHT22;58475;49.662;9.636;2023-09-19T08:12:43;19.63;76.88
70851;DHT22;58475;49.662;9.636;2023-09-19T08:17:53;19.42;76.09
70851;DHT22;58475;49.662;9.636;2023-09-19T08:20:19;19.26;74.76
70851;DHT22;58475;49.662;9.636;2023-09-19T08:25:15;19.15;76.01
70851;DHT22;58475;49.662;9.636;2023-09-19T08:27:45;19.56;76.75
70851;DHT22;58475;49.662;9.636;2023-09-19T08:30:16;19.64;75.66
70851;DHT22;58475;49.662;9.636;2023-09-19T08:32:42;19.54;76.32
70851;DHT22;58475;49.662;9.636;2023-09-19T08:35:11;19.97;75.91
70851;DHT22;58475;49.662;9.636;2023-09-19T08:37:37;19.87;73.86
70851;DHT22;58475;49.662;9.636;2023-09-19T08:40:03;20.14;75.99
70851;DHT22;58475;49.662;9.636;2023-09-19T08:42:29;19.81;74.39
70851;DHT22;58475;49.662;9.636;2023-09-19T08:44:55;19.47;73.22
70851;DHT22;58475;49.662;9.636;2023-09-19T08:47:33;19.25;74.64
70851;DHT22;58475;49.662;9.636;2023-09-19T08:52:43;19.16;73.22
70851;DHT22;58475;49.662;9.636;2023-09-19T08:55:12;19.09;73.99
70851;DHT22;58475;49.662;9.636;2023-09-19T08:57:38;19.18;74.31
70851;DHT22;58475;49.662;9.636;2023-09-19T09:00:08;19.19;73.03
70851;DHT22;58475;49.662;9.636;2023-09-19T09:02:37;19.22;73.43
70851;DHT22;58475;49.662;9.636;2023-09-19T09:05:06;19.18;74.45
70851;DHT22;58475;49.662;9.636;2023-09-19T09:07:32;18.85;73.64
70851;DHT22;58475;49.662;9.636;2023-09-19T09:10:02;18.91;73.50
70851;DHT22;58475;49.662;9.636;2023-09-19T09:12:29;19.05;73.42
70851;DHT22;58475;49.662;9.636;2023-09-19T09:14:55;19.26;72.07
70851;DHT22;58475;49.662;9.636;2023-09-19T09:17:23;19.37;71.27
70851;DHT22;58475;49.662;9.636;2023-09-19T09:19:52;19.73;71.42
70851;DHT22;58475;49.662;9.636;2023-09-19T09:22:18;19.84;70.86
70851;DHT22;58475;49.662;9.636;2023-09-19T09:24:58;19.77;70.66
70851;DHT22;58475;49.662;9.636;2023-09-19T09:27:24;19.71;69.16
70851;DHT22;58475;49.662;9.636;2023-09-19T09:29:51;19.77;69.54
70851;DHT22;58475;49.662;9.636;2023-09-19T09:32:21;19.53;70.19
70851;DHT22;58475;49.662;9.636;2023-09-19T09:34:57;20.22;70.54
70851;DHT22;58475;49.662;9.636;2023-09-19T09:37:24;20.08;68.14
70851;DHT22;58475;49.662;9.636;2023-09-19T09:39:58;20.01;68.92
70851;DHT22;58475;49.662;9.636;2023-09-19T09:42:40;19.81;68.01
70851;DHT22;58475;49.662;9.636;2023-09-19T09:45:26;20.22;67.63
70851;DHT22;58475;49.662;9.636;2023-09-19T09:48:01;19.87;66.16
70851;DHT22;58475;49.662;9.636;2023-09-19T09:50:46;20.69;65.96
70851;DHT22;58475;49.662;9.636;2023-09-19T09:53:26;20.93;66.37
70851;DHT22;58475;49.662;9.636;2023-09-19T09:56:07;20.62;65.01
70851;DHT22;58475;49.662;9.636;2023-09-19T09:58:35;20.59;65.43
70851;DHT22;58475;49.662;9.636;2023-09-19T10:01:03;20.99;64.73
70851;DHT22;58475;49.662;9.636;2023-09-19T10:03:40;21.30;64.80
70851;DHT22;58475;49.662;9.636;2023-09-19T10:06:12;20.89;64.93
70851;DHT22;58475;49.662;9.636;2023-09-19T10:09:09;21.15;65.39
70851;DHT22;58475;49.662;9.636;2023-09-19T10:11:48;20.97;66.05
70851;DHT22;58475;49.662;9.636;2023-09-19T10:14:25;20.94;65.25
70851;DHT22;58475;49.662;9.636;2023-09-19T10:16:59;20.84;63.45
70851;DHT22;58475;49.662;9.636;2023-09-19T10:19:54;21.11;63.91
70851;DHT22;58475;49.662;9.636;2023-09-19T10:22:23;21.17;63.58
70851;DHT22;58475;49.662;9.636;2023-09-19T10:24:53;21.59;62.92
70851;DHT22;58475;49.662;9.636;2023-09-19T10:27:19;21.42;62.65
70851;DHT22;58475;49.662;9.636;2023-09-19T10:29:48;20.86;63.08
70851;DHT22;58475;49.662;9.636;2023-09-19T10:32:16;20.79;63.25
70851;DHT22;58475;49.662;9.636;2023-09-19T10:34:46;20.48;63.13
70851;DHT22;58475;49.662;9.636;2023-09-19T10:37:13;20.52;64.73
70851;DHT22;58475;49.662;9.636;2023-09-19T10:39:40;21.59;62.97
70851;DHT22;58475;49.662;9.636;2023-09-19T10:42:11;21.95;61.07
70851;DHT22;58475;49.662;9.636;2023-09-19T10:44:42;22.09;61.26
70851;DHT22;58475;49.662;9.636;2023-09-19T10:47:10;22.37;58.89
70851;DHT22;58475;49.662;9.636;2023-09-19T10:49:43;21.57;59.42
70851;DHT22;58475;49.662;9.636;2023-09-19T10:52:13;21.92;60.21
70851;DHT22;58475;49.662;9.636;2023-09-19T10:54:46;22.51;59.50
70851;DHT22;58475;49.662;9.636;2023-09-19T10:57:24;21.61;58.49
70851;DHT22;58475;49.662;9.636;2023-09-19T11:00:06;22.41;60.39
70851;DHT22;58475;49.662;9.636;2023-09-19T11:06:00;22.49;58.48
70851;DHT22;58475;49.662;9.636;2023-09-19T11:08:27;22.20;56.88
70851;DHT22;58475;49.662;9.636;2023-09-19T11:10:52;21.89;59.42
70851;DHT22;58475;49.662;9.636;2023-09-19T11:13:29;22.22;59.41
70851;DHT22;58475;49.662;9.636;2023-09-19T11:26:50;21.19;60.18
70851;DHT22;58475;49.662;9.636;2023-09-19T11:29:27;20.63;63.11
70851;DHT22;58475;49.662;9.636;2023-09-19T11:31:55;21.50;61.62
70851;DHT22;58475;49.662;9.636;2023-09-19T11:34:42;21.78;59.72
70851;DHT22;58475;49.662;9.636;2023-09-19T11:39:37;22.40;59.48
70851;DHT22;58475;49.662;9.636;2023-09-19T11:48:13;22.06;57.23
70851;DHT22;58475;49.662;9.636;2023-09-19T11:50:42;22.44;58.99
70851;DHT22;58475;49.662;9.636;2023-09-19T11:53:10;23.58;57.36
70851;DHT22;58475;49.662;9.636;2023-09-19T11:55:38;23.26;56.33
70851;DHT22;58475;49.662;9.636;2023-09-19T11:58:04;22.75;55.59
70851;DHT22;58475;49.662;9.636;2023-09-19T12:00:32;23.41;57.28
70851;DHT22;58475;49.662;9.636;2023-09-19T12:03:05;22.77;54.91
70851;DHT22;58475;49.662;9.636;2023-09-19T12:05:33;21.75;56.61
70851;DHT22;58475;49.662;9.636;2023-09-19T12:07:59;22.70;55.95
70851;DHT22;58475;49.662;9.636;2023-09-19T12:10:24;22.20;55.98
70851;DHT22;58475;49.662;9.636;2023-09-19T12:12:50;21.66;57.85
70851;DHT22;58475;49.662;9.636;2023-09-19T12:15:24;21.89;56.83
70851;DHT22;58475;49.662;9.636;2023-09-19T12:17:54;22.53;56.55
70851;DHT22;58475;49.662;9.636;2023-09-19T12:20:19;21.82;56.35
70851;DHT22;58475;49.662;9.636;2023-09-19T12:22:46;21.96;57.94
70851;DHT22;58475;49.662;9.636;2023-09-19T12:25:13;22.37;55.90
70851;DHT22;58475;49.662;9.636;2023-09-19T12:27:45;22.09;55.91
70851;DHT22;58475;49.662;9.636;2023-09-19T12:30:27;22.84;55.43
70851;DHT22;58475;49.662;9.636;2023-09-19T12:32:53;22.68;55.38
70851;DHT22;58475;49.662;9.636;2023-09-19T12:35:31;22.10;54.55
70851;DHT22;58475;49.662;9.636;2023-09-19T12:38:00;22.30;56.05
70851;DHT22;58475;49.662;9.636;2023-09-19T12:40:26;21.88;57.57
70851;DHT22;58475;49.662;9.636;2023-09-19T12:42:55;22.16;56.60
70851;DHT22;58475;49.662;9.636;2023-09-19T12:45:21;22.17;56.38
70851;DHT22;58475;49.662;9.636;2023-09-19T12:51:05;22.71;56.10
70851;DHT22;58475;49.662;9.636;2023-09-19T12:56:06;22.70;54.25
70851;DHT22;58475;49.662;9.636;2023-09-19T12:58:34;22.41;54.61
70851;DHT22;58475;49.662;9.636;2023-09-19T13:01:00;22.50;55.33
70851;DHT22;58475;49.662;9.636;2023-09-19T13:03:27;22.61;54.37
70851;DHT22;58475;49.662;9.636;2023-09-19T13:06:02;22.97;55.51
70851;DHT22;58475;49.662;9.636;2023-09-19T13:08:34;23.29;54.23
70851;DHT22;58475;49.662;9.636;2023-09-19T13:11:15;22.51;54.01
70851;DHT22;58475;49.662;9.636;2023-09-19T13:13:47;22.88;54.68
70851;DHT22;58475;49.662;9.636;2023-09-19T13:16:15;23.16;54.63
70851;DHT22;58475;49.662;9.636;2023-09-19T13:18:51;23.23;54.26
70851;DHT22;58475;49.662;9.636;2023-09-19T13:21:30;22.80;54.14
70851;DHT22;58475;49.662;9.636;2023-09-19T13:24:19;22.75;54.09
70851;DHT22;58475;49.662;9.636;2023-09-19T13:26:45;23.28;54.12
70851;DHT22;58475;49.662;9.636;2023-09-19T13:29:11;23.01;54.12
70851;DHT22;58475;49.662;9.636;2023-09-19T13:31:37;22.98;54.01
70851;DHT22;58475;49.662;9.636;2023-09-19T13:34:07;22.64;53.68
70851;DHT22;58475;49.662;9.636;2023-09-19T13:36:32;22.92;54.41
70851;DHT22;58475;49.662;9.636;2023-09-19T13:38:59;23.30;53.17
70851;DHT22;58475;49.662;9.636;2023-09-19T13:41:25;23.55;54.00
70851;DHT22;58475;49.662;9.636;2023-09-19T13:43:51;22.80;54.72
70851;DHT22;58475;49.662;9.636;2023-09-19T13:46:17;23.11;54.39
70851;DHT22;58475;49.662;9.636;2023-09-19T13:48:50;22.90;54.99
70851;DHT22;58475;49.662;9.636;2023-09-19T13:51:17;22.83;55.89
70851;DHT22;58475;49.662;9.636;2023-09-19T13:53:44;22.86;55.04
70851;DHT22;58475;49.662;9.636;2023-09-19T13:56:09;22.90;55.80
70851;DHT22;58475;49.662;9.636;2023-09-19T13:58:36;23.38;54.00
70851;DHT22;58475;49.662;9.636;2023-09-19T14:01:02;23.55;53.99
70851;DHT22;58475;49.662;9.636;2023-09-19T14:03:28;23.52;54.01
70851;DHT22;58475;49.662;9.636;2023-09-19T14:05:54;23.41;53.88
70851;DHT22;58475;49.662;9.636;2023-09-19T14:08:20;22.26;56.01
70851;DHT22;58475;49.662;9.636;2023-09-19T14:10:48;22.74;55.81
70851;DHT22;58475;49.662;9.636;2023-09-19T14:13:14;22.81;54.60
70851;DHT22;58475;49.662;9.636;2023-09-19T14:15:40;22.40;55.03
70851;DHT22;58475;49.662;9.636;2023-09-19T14:18:07;22.36;56.00
70851;DHT22;58475;49.662;9.636;2023-09-19T14:20:38;22.43;55.66
70851;DHT22;58475;49.662;9.636;2023-09-19T14:23:04;22.37;55.98
70851;DHT22;58475;49.662;9.636;2023-09-19T14:25:30;22.26;55.51
70851;DHT22;58475;49.662;9.636;2023-09-19T14:27:55;22.28;56.83
70851;DHT22;58475;49.662;9.636;2023-09-19T14:30:21;22.10;57.11
70851;DHT22;58475;49.662;9.636;2023-09-19T14:32:47;22.44;56.01
70851;DHT22;58475;49.662;9.636;2023-09-19T14:35:12;22.16;56.07
70851;DHT22;58475;49.662;9.636;2023-09-19T14:37:39;22.35;56.93
70851;DHT22;58475;49.662;9.636;2023-09-19T14:40:05;22.12;55.78
70851;DHT22;58475;49.662;9.636;2023-09-19T14:42:40;22.05;56.03
70851;DHT22;58475;49.662;9.636;2023-09-19T14:45:06;22.13;56.29
70851;DHT22;58475;49.662;9.636;2023-09-19T14:47:32;22.03;56.91
70851;DHT22;58475;49.662;9.636;2023-09-19T14:50:01;22.01;56.72
70851;DHT22;58475;49.662;9.636;2023-09-19T14:52:26;21.85;57.15
70851;DHT22;58475;49.662;9.636;2023-09-19T14:54:54;21.69;57.46
70851;DHT22;58475;49.662;9.636;2023-09-19T14:57:20;21.91;57.95
70851;DHT22;58475;49.662;9.636;2023-09-19T14:59:45;21.85;58.04
70851;DHT22;58475;49.662;9.636;2023-09-19T15:02:11;21.86;58.20
70851;DHT22;58475;49.662;9.636;2023-09-19T15:04:37;22.03;57.47
70851;DHT22;58475;49.662;9.636;2023-09-19T15:07:05;22.03;58.12
70851;DHT22;58475;49.662;9.636;2023-09-19T15:09:31;22.06;57.61
70851;DHT22;58475;49.662;9.636;2023-09-19T15:11:58;22.29;57.51
70851;DHT22;58475;49.662;9.636;2023-09-19T15:14:24;22.44;58.19
70851;DHT22;58475;49.662;9.636;2023-09-19T15:16:50;22.19;57.16
70851;DHT22;58475;49.662;9.636;2023-09-19T15:19:16;22.20;58.86
70851;DHT22;58475;49.662;9.636;2023-09-19T15:21:42;22.05;57.98
70851;DHT22;58475;49.662;9.636;2023-09-19T15:24:07;22.08;58.39
70851;DHT22;58475;49.662;9.636;2023-09-19T15:26:37;21.82;57.67
70851;DHT22;58475;49.662;9.636;2023-09-19T15:29:08;21.83;59.05
70851;DHT22;58475;49.662;9.636;2023-09-19T15:31:35;21.81;59.78
70851;DHT22;58475;49.662;9.636;2023-09-19T15:34:06;21.86;59.26
70851;DHT22;58475;49.662;9.636;2023-09-19T15:36:32;21.66;59.09
70851;DHT22;58475;49.662;9.636;2023-09-19T15:39:00;21.71;59.26
70851;DHT22;58475;49.662;9.636;2023-09-19T15:41:37;21.64;59.79
70851;DHT22;58475;49.662;9.636;2023-09-19T15:44:03;21.66;59.58
70851;DHT22;58475;49.662;9.636;2023-09-19T15:46:33;21.74;58.91
70851;DHT22;58475;49.662;9.636;2023-09-19T15:49:00;21.74;59.51
70851;DHT22;58475;49.662;9.636;2023-09-19T15:51:26;21.78;60.36
70851;DHT22;58475;49.662;9.636;2023-09-19T15:53:53;21.75;59.65
70851;DHT22;58475;49.662;9.636;2023-09-19T15:56:20;21.48;61.06
70851;DHT22;58475;49.662;9.636;2023-09-19T15:58:47;21.62;59.78
70851;DHT22;58475;49.662;9.636;2023-09-19T16:01:14;21.45;60.04
70851;DHT22;58475;49.662;9.636;2023-09-19T16:03:44;21.55;60.94
70851;DHT22;58475;49.662;9.636;2023-09-19T16:06:17;21.37;60.52
70851;DHT22;58475;49.662;9.636;2023-09-19T16:08:45;21.33;62.20
70851;DHT22;58475;49.662;9.636;2023-09-19T16:11:12;21.27;60.86
70851;DHT22;58475;49.662;9.636;2023-09-19T16:13:39;21.19;61.43
70851;DHT22;58475;49.662;9.636;2023-09-19T16:16:05;21.13;61.51
70851;DHT22;58475;49.662;9.636;2023-09-19T16:18:31;21.06;61.41
70851;DHT22;58475;49.662;9.636;2023-09-19T16:21:03;20.96;61.64
70851;DHT22;58475;49.662;9.636;2023-09-19T16:23:30;21.02;61.09
70851;DHT22;58475;49.662;9.636;2023-09-19T16:26:05;20.97;61.39
70851;DHT22;58475;49.662;9.636;2023-09-19T16:28:37;20.94;63.52
70851;DHT22;58475;49.662;9.636;2023-09-19T16:31:03;20.80;63.16